sensor_id;sensor_type;location;lat;lon;timestamp;P1;durP1;ratioP1;P2;durP2;ratioP2
23046;SDS011;11691;51.462;6.902;2023-05-02T00:00:26;33.80;;;22.10;;
23046;SDS011;11691;51.462;6.902;2023-05-02T00:02:52;35.13;;;23.58;;
23046;SDS011;11691;51.462;6.902;2023-05-02T00:05:18;36.45;;;24.13;;
23046;SDS011;11691;51.462;6.902;2023-05-02T00:07:44;37.85;;;24.30;;
23046;SDS011;11691;51.462;6.902;2023-05-02T00:10:10;36.33;;;24.00;;
23046;SDS011;11691;51.462;6.902;2023-05-02T00:12:36;40.92;;;24.90;;
23046;SDS011;11691;51.462;6.902;2023-05-02T00:15:02;34.95;;;23.42;;
23046;SDS011;11691;51.462;6.902;2023-05-02T00:17:28;39.20;;;25.27;;
23046;SDS011;11691;51.462;6.902;2023-05-02T00:19:55;44.35;;;25.63;;
23046;SDS011;11691;51.462;6.902;2023-05-02T00:22:20;40.33;;;25.05;;
23046;SDS011;11691;51.462;6.902;2023-05-02T00:24:46;44.38;;;27.83;;
23046;SDS011;11691;51.462;6.902;2023-05-02T00:27:12;46.42;;;28.33;;
23046;SDS011;11691;51.462;6.902;2023-05-02T00:29:39;43.22;;;28.23;;
23046;SDS011;11691;51.462;6.902;2023-05-02T00:32:05;45.63;;;28.42;;
23046;SDS011;11691;51.462;6.902;2023-05-02T00:34:31;42.97;;;28.35;;
23046;SDS011;11691;51.462;6.902;2023-05-02T00:36:57;46.72;;;28.60;;
23046;SDS011;11691;51.462;6.902;2023-05-02T00:39:23;52.67;;;30.58;;
23046;SDS011;11691;51.462;6.902;2023-05-02T00:41:55;46.17;;;29.02;;
23046;SDS011;11691;51.462;6.902;2023-05-02T00:44:23;45.63;;;27.55;;
23046;SDS011;11691;51.462;6.902;2023-05-02T00:46:49;45.03;;;28.05;;
23046;SDS011;11691;51.462;6.902;2023-05-02T00:49:16;48.78;;;28.85;;
23046;SDS011;11691;51.462;6.902;2023-05-02T00:51:42;46.28;;;28.52;;
23046;SDS011;11691;51.462;6.902;2023-05-02T00:54:08;49.47;;;29.23;;
23046;SDS011;11691;51.462;6.902;2023-05-02T00:56:36;49.28;;;28.58;;
23046;SDS011;11691;51.462;6.902;2023-05-02T00:59:02;52.58;;;29.95;;
23046;SDS011;11691;51.462;6.902;2023-05-02T01:01:35;53.22;;;30.48;;
23046;SDS011;11691;51.462;6.902;2023-05-02T01:06:35;50.88;;;29.05;;
23046;SDS011;11691;51.462;6.902;2023-05-02T01:12:00;55.92;;;31.88;;
23046;SDS011;11691;51.462;6.902;2023-05-02T01:14:28;54.17;;;30.15;;
23046;SDS011;11691;51.462;6.902;2023-05-02T01:16:55;55.70;;;31.60;;
23046;SDS011;11691;51.462;6.902;2023-05-02T01:19:28;54.90;;;31.02;;
23046;SDS011;11691;51.462;6.902;2023-05-02T01:21:56;58.85;;;31.50;;
23046;SDS011;11691;51.462;6.902;2023-05-02T01:24:28;60.15;;;30.38;;
23046;SDS011;11691;51.462;6.902;2023-05-02T01:29:59;49.85;;;26.55;;
23046;SDS011;11691;51.462;6.902;2023-05-02T01:32:27;52.30;;;27.85;;
23046;SDS011;11691;51.462;6.902;2023-05-02T01:34:55;45.45;;;24.70;;
23046;SDS011;11691;51.462;6.902;2023-05-02T01:37:21;50.47;;;26.73;;
23046;SDS011;11691;51.462;6.902;2023-05-02T01:39:48;44.20;;;24.95;;
23046;SDS011;11691;51.462;6.902;2023-05-02T01:42:15;47.22;;;25.38;;
23046;SDS011;11691;51.462;6.902;2023-05-02T01:44:42;47.38;;;25.13;;
23046;SDS011;11691;51.462;6.902;2023-05-02T01:47:09;43.10;;;23.98;;
23046;SDS011;11691;51.462;6.902;2023-05-02T01:49:56;45.85;;;24.38;;
23046;SDS011;11691;51.462;6.902;2023-05-02T01:52:23;45.30;;;24.95;;
23046;SDS011;11691;51.462;6.902;2023-05-02T01:54:51;42.55;;;24.08;;
23046;SDS011;11691;51.462;6.902;2023-05-02T01:57:18;44.40;;;23.42;;
23046;SDS011;11691;51.462;6.902;2023-05-02T01:59:44;44.28;;;23.27;;
23046;SDS011;11691;51.462;6.902;2023-05-02T02:02:12;42.45;;;22.25;;
23046;SDS011;11691;51.462;6.902;2023-05-02T02:04:39;40.92;;;21.50;;
23046;SDS011;11691;51.462;6.902;2023-05-02T02:07:07;35.03;;;18.98;;
23046;SDS011;11691;51.462;6.902;2023-05-02T02:09:34;34.17;;;18.60;;
23046;SDS011;11691;51.462;6.902;2023-05-02T02:14:29;35.92;;;18.88;;
23046;SDS011;11691;51.462;6.902;2023-05-02T02:16:58;37.75;;;19.30;;
23046;SDS011;11691;51.462;6.902;2023-05-02T02:19:28;31.90;;;17.38;;
23046;SDS011;11691;51.462;6.902;2023-05-02T02:21:55;30.65;;;16.88;;
23046;SDS011;11691;51.462;6.902;2023-05-02T02:24:23;36.00;;;18.17;;
23046;SDS011;11691;51.462;6.902;2023-05-02T02:26:49;33.17;;;18.02;;
23046;SDS011;11691;51.462;6.902;2023-05-02T02:29:16;33.58;;;17.85;;
23046;SDS011;11691;51.462;6.902;2023-05-02T02:31:41;31.33;;;17.52;;
23046;SDS011;11691;51.462;6.902;2023-05-02T02:34:07;29.27;;;16.63;;
23046;SDS011;11691;51.462;6.902;2023-05-02T02:36:39;33.53;;;17.15;;
23046;SDS011;11691;51.462;6.902;2023-05-02T02:39:18;30.85;;;16.77;;
23046;SDS011;11691;51.462;6.902;2023-05-02T02:44:46;31.23;;;14.68;;
23046;SDS011;11691;51.462;6.902;2023-05-02T02:47:19;29.60;;;16.42;;
23046;SDS011;11691;51.462;6.902;2023-05-02T02:49:50;33.15;;;16.15;;
23046;SDS011;11691;51.462;6.902;2023-05-02T02:52:32;29.23;;;14.95;;
23046;SDS011;11691;51.462;6.902;2023-05-02T02:55:06;27.73;;;14.50;;
23046;SDS011;11691;51.462;6.902;2023-05-02T03:00:15;29.33;;;14.70;;
23046;SDS011;11691;51.462;6.902;2023-05-02T03:02:44;26.90;;;14.23;;
23046;SDS011;11691;51.462;6.902;2023-05-02T03:05:11;28.00;;;14.65;;
23046;SDS011;11691;51.462;6.902;2023-05-02T03:07:37;27.00;;;13.88;;
23046;SDS011;11691;51.462;6.902;2023-05-02T03:10:04;32.35;;;13.85;;
23046;SDS011;11691;51.462;6.902;2023-05-02T03:12:30;24.35;;;12.40;;
23046;SDS011;11691;51.462;6.902;2023-05-02T03:17:53;25.77;;;12.85;;
23046;SDS011;11691;51.462;6.902;2023-05-02T03:20:19;22.30;;;12.25;;
23046;SDS011;11691;51.462;6.902;2023-05-02T03:22:45;25.90;;;12.32;;
23046;SDS011;11691;51.462;6.902;2023-05-02T03:25:10;25.38;;;12.90;;
23046;SDS011;11691;51.462;6.902;2023-05-02T03:27:36;25.63;;;12.55;;
23046;SDS011;11691;51.462;6.902;2023-05-02T03:30:02;25.55;;;12.63;;
23046;SDS011;11691;51.462;6.902;2023-05-02T03:32:28;23.48;;;11.80;;
23046;SDS011;11691;51.462;6.902;2023-05-02T03:34:54;22.95;;;12.13;;
23046;SDS011;11691;51.462;6.902;2023-05-02T03:37:22;20.77;;;11.65;;
23046;SDS011;11691;51.462;6.902;2023-05-02T03:39:48;24.65;;;12.98;;
23046;SDS011;11691;51.462;6.902;2023-05-02T03:42:14;22.77;;;11.90;;
23046;SDS011;11691;51.462;6.902;2023-05-02T03:44:40;22.63;;;12.43;;
23046;SDS011;11691;51.462;6.902;2023-05-02T03:47:06;24.92;;;12.60;;
23046;SDS011;11691;51.462;6.902;2023-05-02T03:49:33;22.48;;;13.13;;
23046;SDS011;11691;51.462;6.902;2023-05-02T03:51:59;25.88;;;13.52;;
23046;SDS011;11691;51.462;6.902;2023-05-02T03:54:25;24.95;;;13.75;;
23046;SDS011;11691;51.462;6.902;2023-05-02T03:56:52;24.13;;;12.10;;
23046;SDS011;11691;51.462;6.902;2023-05-02T03:59:18;25.98;;;12.75;;
23046;SDS011;11691;51.462;6.902;2023-05-02T04:01:47;24.98;;;12.55;;
23046;SDS011;11691;51.462;6.902;2023-05-02T04:04:14;24.90;;;12.05;;
23046;SDS011;11691;51.462;6.902;2023-05-02T04:06:40;21.48;;;11.82;;
23046;SDS011;11691;51.462;6.902;2023-05-02T04:09:06;19.90;;;11.65;;
23046;SDS011;11691;51.462;6.902;2023-05-02T04:11:32;20.83;;;11.27;;
23046;SDS011;11691;51.462;6.902;2023-05-02T04:13:58;22.90;;;12.15;;
23046;SDS011;11691;51.462;6.902;2023-05-02T04:16:24;21.83;;;11.52;;
23046;SDS011;11691;51.462;6.902;2023-05-02T04:18:50;18.52;;;10.57;;
23046;SDS011;11691;51.462;6.902;2023-05-02T04:21:15;23.83;;;11.18;;
23046;SDS011;11691;51.462;6.902;2023-05-02T04:23:41;19.83;;;10.20;;
23046;SDS011;11691;51.462;6.902;2023-05-02T04:26:07;19.48;;;10.43;;
23046;SDS011;11691;51.462;6.902;2023-05-02T04:28:34;24.38;;;11.98;;
23046;SDS011;11691;51.462;6.902;2023-05-02T04:31:00;21.40;;;11.88;;
23046;SDS011;11691;51.462;6.902;2023-05-02T04:33:28;21.15;;;12.23;;
23046;SDS011;11691;51.462;6.902;2023-05-02T04:35:54;20.55;;;11.45;;
23046;SDS011;11691;51.462;6.902;2023-05-02T04:38:20;22.33;;;11.73;;
23046;SDS011;11691;51.462;6.902;2023-05-02T04:40:46;24.30;;;12.25;;
23046;SDS011;11691;51.462;6.902;2023-05-02T04:43:12;25.52;;;12.85;;
23046;SDS011;11691;51.462;6.902;2023-05-02T04:45:38;22.10;;;12.27;;
23046;SDS011;11691;51.462;6.902;2023-05-02T04:48:04;19.48;;;11.43;;
23046;SDS011;11691;51.462;6.902;2023-05-02T04:50:30;24.30;;;12.45;;
23046;SDS011;11691;51.462;6.902;2023-05-02T04:52:56;22.15;;;12.90;;
23046;SDS011;11691;51.462;6.902;2023-05-02T04:55:23;25.10;;;13.13;;
23046;SDS011;11691;51.462;6.902;2023-05-02T04:57:49;23.70;;;13.70;;
23046;SDS011;11691;51.462;6.902;2023-05-02T05:00:15;25.92;;;12.80;;
23046;SDS011;11691;51.462;6.902;2023-05-02T05:02:41;25.23;;;13.38;;
23046;SDS011;11691;51.462;6.902;2023-05-02T05:05:07;25.67;;;13.68;;
23046;SDS011;11691;51.462;6.902;2023-05-02T05:07:33;27.45;;;14.05;;
23046;SDS011;11691;51.462;6.902;2023-05-02T05:09:59;23.40;;;13.07;;
23046;SDS011;11691;51.462;6.902;2023-05-02T05:12:25;21.08;;;11.90;;
23046;SDS011;11691;51.462;6.902;2023-05-02T05:14:51;23.90;;;10.82;;
23046;SDS011;11691;51.462;6.902;2023-05-02T05:17:17;15.63;;;10.13;;
23046;SDS011;11691;51.462;6.902;2023-05-02T05:19:43;18.02;;;9.25;;
23046;SDS011;11691;51.462;6.902;2023-05-02T05:22:09;15.30;;;8.85;;
23046;SDS011;11691;51.462;6.902;2023-05-02T05:24:35;17.13;;;9.55;;
23046;SDS011;11691;51.462;6.902;2023-05-02T05:27:01;14.05;;;8.55;;
23046;SDS011;11691;51.462;6.902;2023-05-02T05:29:27;14.32;;;7.47;;
23046;SDS011;11691;51.462;6.902;2023-05-02T05:31:56;10.48;;;6.85;;
23046;SDS011;11691;51.462;6.902;2023-05-02T05:34:23;9.85;;;6.00;;
23046;SDS011;11691;51.462;6.902;2023-05-02T05:36:49;12.05;;;5.57;;
23046;SDS011;11691;51.462;6.902;2023-05-02T05:39:15;10.40;;;6.00;;
23046;SDS011;11691;51.462;6.902;2023-05-02T05:41:41;13.07;;;5.90;;
23046;SDS011;11691;51.462;6.902;2023-05-02T05:44:07;9.40;;;5.30;;
23046;SDS011;11691;51.462;6.902;2023-05-02T05:46:33;11.68;;;5.35;;
23046;SDS011;11691;51.462;6.902;2023-05-02T05:48:59;10.32;;;5.10;;
23046;SDS011;11691;51.462;6.902;2023-05-02T05:51:25;10.65;;;4.95;;
23046;SDS011;11691;51.462;6.902;2023-05-02T05:53:51;9.55;;;4.88;;
23046;SDS011;11691;51.462;6.902;2023-05-02T05:56:18;9.75;;;4.57;;
23046;SDS011;11691;51.462;6.902;2023-05-02T05:58:43;7.20;;;3.92;;
23046;SDS011;11691;51.462;6.902;2023-05-02T06:01:09;9.75;;;3.95;;
23046;SDS011;11691;51.462;6.902;2023-05-02T06:03:35;6.68;;;4.13;;
23046;SDS011;11691;51.462;6.902;2023-05-02T06:06:02;7.18;;;3.75;;
23046;SDS011;11691;51.462;6.902;2023-05-02T06:08:28;8.88;;;3.70;;
23046;SDS011;11691;51.462;6.902;2023-05-02T06:10:54;5.55;;;3.33;;
23046;SDS011;11691;51.462;6.902;2023-05-02T06:13:20;6.55;;;3.20;;
23046;SDS011;11691;51.462;6.902;2023-05-02T06:15:46;5.30;;;2.95;;
23046;SDS011;11691;51.462;6.902;2023-05-02T06:18:12;7.45;;;3.08;;
23046;SDS011;11691;51.462;6.902;2023-05-02T06:20:38;5.70;;;3.00;;
23046;SDS011;11691;51.462;6.902;2023-05-02T06:23:04;9.40;;;3.58;;
23046;SDS011;11691;51.462;6.902;2023-05-02T06:25:30;6.35;;;3.22;;
23046;SDS011;11691;51.462;6.902;2023-05-02T06:27:57;5.53;;;3.40;;
23046;SDS011;11691;51.462;6.902;2023-05-02T06:30:23;8.75;;;3.17;;
23046;SDS011;11691;51.462;6.902;2023-05-02T06:32:49;6.90;;;3.33;;
23046;SDS011;11691;51.462;6.902;2023-05-02T06:35:15;5.18;;;2.92;;
23046;SDS011;11691;51.462;6.902;2023-05-02T06:37:41;6.78;;;3.33;;
23046;SDS011;11691;51.462;6.902;2023-05-02T06:40:07;7.03;;;3.28;;
23046;SDS011;11691;51.462;6.902;2023-05-02T06:42:34;8.90;;;2.95;;
23046;SDS011;11691;51.462;6.902;2023-05-02T06:45:00;5.13;;;2.60;;
23046;SDS011;11691;51.462;6.902;2023-05-02T06:47:25;6.93;;;3.28;;
23046;SDS011;11691;51.462;6.902;2023-05-02T06:49:52;12.25;;;3.10;;
23046;SDS011;11691;51.462;6.902;2023-05-02T06:52:18;9.40;;;2.83;;
23046;SDS011;11691;51.462;6.902;2023-05-02T06:54:44;9.40;;;3.17;;
23046;SDS011;11691;51.462;6.902;2023-05-02T06:57:09;6.28;;;3.22;;
23046;SDS011;11691;51.462;6.902;2023-05-02T06:59:35;4.93;;;3.20;;
23046;SDS011;11691;51.462;6.902;2023-05-02T07:02:01;6.78;;;3.53;;
23046;SDS011;11691;51.462;6.902;2023-05-02T07:04:28;6.10;;;3.55;;
23046;SDS011;11691;51.462;6.902;2023-05-02T07:06:54;8.07;;;3.92;;
23046;SDS011;11691;51.462;6.902;2023-05-02T07:09:19;6.03;;;2.63;;
23046;SDS011;11691;51.462;6.902;2023-05-02T07:11:45;6.28;;;2.75;;
23046;SDS011;11691;51.462;6.902;2023-05-02T07:14:11;9.18;;;2.30;;
23046;SDS011;11691;51.462;6.902;2023-05-02T07:16:37;3.92;;;1.83;;
23046;SDS011;11691;51.462;6.902;2023-05-02T07:19:03;6.05;;;1.65;;
23046;SDS011;11691;51.462;6.902;2023-05-02T07:21:30;4.28;;;1.95;;
23046;SDS011;11691;51.462;6.902;2023-05-02T07:23:56;4.80;;;1.58;;
23046;SDS011;11691;51.462;6.902;2023-05-02T07:26:22;5.50;;;2.17;;
23046;SDS011;11691;51.462;6.902;2023-05-02T07:28:50;5.03;;;2.03;;
23046;SDS011;11691;51.462;6.902;2023-05-02T07:31:15;2.97;;;1.48;;
23046;SDS011;11691;51.462;6.902;2023-05-02T07:33:41;3.00;;;1.48;;
23046;SDS011;11691;51.462;6.902;2023-05-02T07:36:07;4.35;;;1.63;;
23046;SDS011;11691;51.462;6.902;2023-05-02T07:38:33;7.38;;;1.90;;
23046;SDS011;11691;51.462;6.902;2023-05-02T07:40:59;6.30;;;1.58;;
23046;SDS011;11691;51.462;6.902;2023-05-02T07:43:25;3.45;;;1.88;;
23046;SDS011;11691;51.462;6.902;2023-05-02T07:45:52;5.35;;;2.05;;
23046;SDS011;11691;51.462;6.902;2023-05-02T07:48:18;4.53;;;1.75;;
23046;SDS011;11691;51.462;6.902;2023-05-02T07:50:44;4.95;;;1.60;;
23046;SDS011;11691;51.462;6.902;2023-05-02T07:53:10;3.25;;;1.63;;
23046;SDS011;11691;51.462;6.902;2023-05-02T07:55:36;3.60;;;1.40;;
23046;SDS011;11691;51.462;6.902;2023-05-02T07:58:02;4.07;;;1.67;;
23046;SDS011;11691;51.462;6.902;2023-05-02T08:00:28;3.75;;;1.73;;
23046;SDS011;11691;51.462;6.902;2023-05-02T08:02:54;4.47;;;1.60;;
23046;SDS011;11691;51.462;6.902;2023-05-02T08:05:21;5.07;;;1.88;;
23046;SDS011;11691;51.462;6.902;2023-05-02T08:07:47;2.85;;;1.67;;
23046;SDS011;11691;51.462;6.902;2023-05-02T08:10:13;1.92;;;1.45;;
23046;SDS011;11691;51.462;6.902;2023-05-02T08:12:39;5.15;;;1.85;;
23046;SDS011;11691;51.462;6.902;2023-05-02T08:15:06;3.35;;;1.45;;
23046;SDS011;11691;51.462;6.902;2023-05-02T08:17:32;3.45;;;1.50;;
23046;SDS011;11691;51.462;6.902;2023-05-02T08:19:58;2.65;;;1.40;;
23046;SDS011;11691;51.462;6.902;2023-05-02T08:22:25;6.10;;;1.42;;
23046;SDS011;11691;51.462;6.902;2023-05-02T08:24:51;3.92;;;1.70;;
23046;SDS011;11691;51.462;6.902;2023-05-02T08:27:17;4.65;;;1.65;;
23046;SDS011;11691;51.462;6.902;2023-05-02T08:29:43;2.47;;;1.70;;
23046;SDS011;11691;51.462;6.902;2023-05-02T08:32:09;3.70;;;1.80;;
23046;SDS011;11691;51.462;6.902;2023-05-02T08:34:35;4.47;;;1.48;;
23046;SDS011;11691;51.462;6.902;2023-05-02T08:37:01;3.20;;;1.65;;
23046;SDS011;11691;51.462;6.902;2023-05-02T08:39:32;3.92;;;1.70;;
23046;SDS011;11691;51.462;6.902;2023-05-02T08:41:58;4.40;;;1.50;;
23046;SDS011;11691;51.462;6.902;2023-05-02T08:44:24;5.00;;;1.70;;
23046;SDS011;11691;51.462;6.902;2023-05-02T08:46:50;3.90;;;1.73;;
23046;SDS011;11691;51.462;6.902;2023-05-02T08:49:17;3.28;;;1.52;;
23046;SDS011;11691;51.462;6.902;2023-05-02T08:51:44;5.03;;;1.75;;
23046;SDS011;11691;51.462;6.902;2023-05-02T08:54:10;4.47;;;1.30;;
23046;SDS011;11691;51.462;6.902;2023-05-02T08:56:41;3.20;;;1.52;;
23046;SDS011;11691;51.462;6.902;2023-05-02T08:59:06;4.07;;;1.63;;
23046;SDS011;11691;51.462;6.902;2023-05-02T09:01:32;6.70;;;1.70;;
23046;SDS011;11691;51.462;6.902;2023-05-02T09:04:00;6.05;;;1.90;;
23046;SDS011;11691;51.462;6.902;2023-05-02T09:06:26;2.80;;;1.98;;
23046;SDS011;11691;51.462;6.902;2023-05-02T09:08:53;3.70;;;1.75;;
23046;SDS011;11691;51.462;6.902;2023-05-02T09:11:19;5.88;;;1.85;;
23046;SDS011;11691;51.462;6.902;2023-05-02T09:13:46;7.47;;;2.33;;
23046;SDS011;11691;51.462;6.902;2023-05-02T09:16:16;6.10;;;2.08;;
23046;SDS011;11691;51.462;6.902;2023-05-02T09:18:43;6.03;;;2.20;;
23046;SDS011;11691;51.462;6.902;2023-05-02T09:21:11;5.78;;;2.40;;
23046;SDS011;11691;51.462;6.902;2023-05-02T09:26:15;8.60;;;2.47;;
23046;SDS011;11691;51.462;6.902;2023-05-02T09:31:18;4.63;;;1.73;;
23046;SDS011;11691;51.462;6.902;2023-05-02T09:33:51;4.68;;;1.30;;
23046;SDS011;11691;51.462;6.902;2023-05-02T09:36:19;3.03;;;1.45;;
23046;SDS011;11691;51.462;6.902;2023-05-02T09:38:48;3.53;;;1.42;;
23046;SDS011;11691;51.462;6.902;2023-05-02T09:41:17;7.20;;;1.70;;
23046;SDS011;11691;51.462;6.902;2023-05-02T09:43:53;3.20;;;1.25;;
23046;SDS011;11691;51.462;6.902;2023-05-02T09:46:21;9.20;;;1.85;;
23046;SDS011;11691;51.462;6.902;2023-05-02T09:48:51;5.85;;;1.90;;
23046;SDS011;11691;51.462;6.902;2023-05-02T09:51:17;6.13;;;1.88;;
23046;SDS011;11691;51.462;6.902;2023-05-02T09:53:44;6.65;;;2.13;;
23046;SDS011;11691;51.462;6.902;2023-05-02T09:56:10;8.80;;;2.05;;
23046;SDS011;11691;51.462;6.902;2023-05-02T09:58:36;5.93;;;2.15;;
23046;SDS011;11691;51.462;6.902;2023-05-02T10:01:02;6.45;;;2.28;;
23046;SDS011;11691;51.462;6.902;2023-05-02T10:03:28;5.57;;;2.47;;
23046;SDS011;11691;51.462;6.902;2023-05-02T10:05:56;8.63;;;2.95;;
23046;SDS011;11691;51.462;6.902;2023-05-02T10:08:26;6.32;;;2.78;;
23046;SDS011;11691;51.462;6.902;2023-05-02T10:10:56;6.85;;;2.30;;
23046;SDS011;11691;51.462;6.902;2023-05-02T10:13:23;6.28;;;1.90;;
23046;SDS011;11691;51.462;6.902;2023-05-02T10:18:27;4.22;;;1.52;;
23046;SDS011;11691;51.462;6.902;2023-05-02T10:20:57;10.25;;;2.10;;
23046;SDS011;11691;51.462;6.902;2023-05-02T10:23:27;4.47;;;1.98;;
23046;SDS011;11691;51.462;6.902;2023-05-02T10:25:53;7.88;;;2.30;;
23046;SDS011;11691;51.462;6.902;2023-05-02T10:28:20;7.90;;;2.83;;
23046;SDS011;11691;51.462;6.902;2023-05-02T10:30:46;8.00;;;2.17;;
23046;SDS011;11691;51.462;6.902;2023-05-02T10:33:13;10.13;;;2.80;;
23046;SDS011;11691;51.462;6.902;2023-05-02T10:35:41;8.10;;;2.03;;
23046;SDS011;11691;51.462;6.902;2023-05-02T10:38:08;8.77;;;2.35;;
23046;SDS011;11691;51.462;6.902;2023-05-02T10:40:35;4.72;;;2.20;;
23046;SDS011;11691;51.462;6.902;2023-05-02T10:43:01;8.38;;;2.58;;
23046;SDS011;11691;51.462;6.902;2023-05-02T10:45:32;7.25;;;2.13;;
23046;SDS011;11691;51.462;6.902;2023-05-02T10:48:17;5.43;;;1.90;;
23046;SDS011;11691;51.462;6.902;2023-05-02T10:53:22;11.93;;;2.40;;
23046;SDS011;11691;51.462;6.902;2023-05-02T10:58:33;5.68;;;1.80;;
23046;SDS011;11691;51.462;6.902;2023-05-02T11:03:56;6.43;;;1.83;;
23046;SDS011;11691;51.462;6.902;2023-05-02T11:06:24;6.70;;;1.90;;
23046;SDS011;11691;51.462;6.902;2023-05-02T11:08:50;7.68;;;2.03;;
23046;SDS011;11691;51.462;6.902;2023-05-02T11:14:01;3.67;;;1.73;;
23046;SDS011;11691;51.462;6.902;2023-05-02T11:16:43;6.95;;;2.38;;
23046;SDS011;11691;51.462;6.902;2023-05-02T11:19:13;7.80;;;2.92;;
23046;SDS011;11691;51.462;6.902;2023-05-02T11:21:39;4.47;;;1.95;;
23046;SDS011;11691;51.462;6.902;2023-05-02T11:29:51;4.90;;;1.70;;
23046;SDS011;11691;51.462;6.902;2023-05-02T11:32:18;6.93;;;2.22;;
23046;SDS011;11691;51.462;6.902;2023-05-02T11:34:44;5.80;;;2.00;;
23046;SDS011;11691;51.462;6.902;2023-05-02T11:37:11;7.30;;;1.70;;
23046;SDS011;11691;51.462;6.902;2023-05-02T11:39:37;7.47;;;1.70;;
23046;SDS011;11691;51.462;6.902;2023-05-02T11:42:04;6.53;;;1.65;;
23046;SDS011;11691;51.462;6.902;2023-05-02T11:44:30;5.53;;;1.80;;
23046;SDS011;11691;51.462;6.902;2023-05-02T11:46:56;6.65;;;2.25;;
23046;SDS011;11691;51.462;6.902;2023-05-02T11:49:22;7.47;;;2.05;;
23046;SDS011;11691;51.462;6.902;2023-05-02T11:51:48;5.00;;;1.25;;
23046;SDS011;11691;51.462;6.902;2023-05-02T11:54:20;5.63;;;1.60;;
23046;SDS011;11691;51.462;6.902;2023-05-02T11:56:46;6.05;;;1.83;;
23046;SDS011;11691;51.462;6.902;2023-05-02T11:59:13;3.65;;;1.55;;
23046;SDS011;11691;51.462;6.902;2023-05-02T12:01:48;5.65;;;1.90;;
23046;SDS011;11691;51.462;6.902;2023-05-02T12:04:15;5.72;;;1.70;;
23046;SDS011;11691;51.462;6.902;2023-05-02T12:06:58;5.53;;;1.48;;
23046;SDS011;11691;51.462;6.902;2023-05-02T12:09:24;4.97;;;1.90;;
23046;SDS011;11691;51.462;6.902;2023-05-02T12:11:50;9.63;;;1.98;;
23046;SDS011;11691;51.462;6.902;2023-05-02T12:14:17;5.05;;;2.13;;
23046;SDS011;11691;51.462;6.902;2023-05-02T12:16:44;5.85;;;1.67;;
23046;SDS011;11691;51.462;6.902;2023-05-02T12:19:10;3.28;;;1.50;;
23046;SDS011;11691;51.462;6.902;2023-05-02T12:21:36;6.10;;;1.63;;
23046;SDS011;11691;51.462;6.902;2023-05-02T12:24:03;4.10;;;1.80;;
23046;SDS011;11691;51.462;6.902;2023-05-02T12:26:29;3.72;;;1.40;;
23046;SDS011;11691;51.462;6.902;2023-05-02T12:28:56;3.65;;;1.55;;
23046;SDS011;11691;51.462;6.902;2023-05-02T12:31:23;3.95;;;1.52;;
23046;SDS011;11691;51.462;6.902;2023-05-02T12:33:49;5.20;;;1.90;;
23046;SDS011;11691;51.462;6.902;2023-05-02T12:36:17;2.47;;;1.48;;
23046;SDS011;11691;51.462;6.902;2023-05-02T12:38:53;6.13;;;3.00;;
23046;SDS011;11691;51.462;6.902;2023-05-02T12:41:34;7.50;;;2.33;;
23046;SDS011;11691;51.462;6.902;2023-05-02T12:44:00;3.38;;;1.67;;
23046;SDS011;11691;51.462;6.902;2023-05-02T12:46:27;6.50;;;1.85;;
23046;SDS011;11691;51.462;6.902;2023-05-02T12:51:33;3.10;;;1.50;;
23046;SDS011;11691;51.462;6.902;2023-05-02T12:53:59;4.00;;;1.40;;
23046;SDS011;11691;51.462;6.902;2023-05-02T12:56:25;3.03;;;1.30;;
23046;SDS011;11691;51.462;6.902;2023-05-02T12:58:56;5.72;;;1.65;;
23046;SDS011;11691;51.462;6.902;2023-05-02T13:01:28;3.95;;;1.60;;
23046;SDS011;11691;51.462;6.902;2023-05-02T13:03:55;4.18;;;1.73;;
23046;SDS011;11691;51.462;6.902;2023-05-02T13:06:21;4.43;;;1.63;;
23046;SDS011;11691;51.462;6.902;2023-05-02T13:08:47;3.72;;;1.67;;
23046;SDS011;11691;51.462;6.902;2023-05-02T13:11:13;4.78;;;1.88;;
23046;SDS011;11691;51.462;6.902;2023-05-02T13:13:39;5.35;;;1.80;;
23046;SDS011;11691;51.462;6.902;2023-05-02T13:16:05;5.72;;;1.92;;
23046;SDS011;11691;51.462;6.902;2023-05-02T13:18:32;3.70;;;1.52;;
23046;SDS011;11691;51.462;6.902;2023-05-02T13:20:57;4.38;;;1.98;;
23046;SDS011;11691;51.462;6.902;2023-05-02T13:23:23;8.02;;;1.90;;
23046;SDS011;11691;51.462;6.902;2023-05-02T13:25:50;5.57;;;2.03;;
23046;SDS011;11691;51.462;6.902;2023-05-02T13:28:16;3.88;;;1.98;;
23046;SDS011;11691;51.462;6.902;2023-05-02T13:30:42;6.50;;;2.20;;
23046;SDS011;11691;51.462;6.902;2023-05-02T13:33:08;3.95;;;1.95;;
23046;SDS011;11691;51.462;6.902;2023-05-02T13:35:34;5.28;;;1.80;;
23046;SDS011;11691;51.462;6.902;2023-05-02T13:38:00;5.15;;;2.00;;
23046;SDS011;11691;51.462;6.902;2023-05-02T13:40:26;5.15;;;2.20;;
23046;SDS011;11691;51.462;6.902;2023-05-02T13:42:53;6.25;;;2.30;;
23046;SDS011;11691;51.462;6.902;2023-05-02T13:45:19;4.47;;;2.03;;
23046;SDS011;11691;51.462;6.902;2023-05-02T13:47:45;4.45;;;2.05;;
23046;SDS011;11691;51.462;6.902;2023-05-02T13:50:11;5.57;;;1.67;;
23046;SDS011;11691;51.462;6.902;2023-05-02T13:52:37;3.83;;;1.77;;
23046;SDS011;11691;51.462;6.902;2023-05-02T13:55:03;6.05;;;1.92;;
23046;SDS011;11691;51.462;6.902;2023-05-02T13:57:29;4.82;;;2.33;;
23046;SDS011;11691;51.462;6.902;2023-05-02T13:59:56;4.57;;;1.90;;
23046;SDS011;11691;51.462;6.902;2023-05-02T14:02:22;3.10;;;1.80;;
23046;SDS011;11691;51.462;6.902;2023-05-02T14:04:48;5.78;;;1.77;;
23046;SDS011;11691;51.462;6.902;2023-05-02T14:07:14;5.88;;;1.90;;
23046;SDS011;11691;51.462;6.902;2023-05-02T14:09:40;6.55;;;2.15;;
23046;SDS011;11691;51.462;6.902;2023-05-02T14:12:06;7.93;;;2.20;;
23046;SDS011;11691;51.462;6.902;2023-05-02T14:14:32;6.45;;;1.98;;
23046;SDS011;11691;51.462;6.902;2023-05-02T14:17:00;7.00;;;1.98;;
23046;SDS011;11691;51.462;6.902;2023-05-02T14:19:26;4.25;;;2.20;;
23046;SDS011;11691;51.462;6.902;2023-05-02T14:21:52;3.70;;;1.85;;
23046;SDS011;11691;51.462;6.902;2023-05-02T14:24:18;4.55;;;2.45;;
23046;SDS011;11691;51.462;6.902;2023-05-02T14:26:44;6.00;;;2.50;;
23046;SDS011;11691;51.462;6.902;2023-05-02T14:29:11;4.53;;;2.65;;
23046;SDS011;11691;51.462;6.902;2023-05-02T14:31:37;6.25;;;2.13;;
23046;SDS011;11691;51.462;6.902;2023-05-02T14:34:03;3.38;;;2.08;;
23046;SDS011;11691;51.462;6.902;2023-05-02T14:36:29;4.82;;;2.10;;
23046;SDS011;11691;51.462;6.902;2023-05-02T14:38:55;5.65;;;2.55;;
23046;SDS011;11691;51.462;6.902;2023-05-02T14:41:22;6.57;;;2.42;;
23046;SDS011;11691;51.462;6.902;2023-05-02T14:43:50;5.22;;;2.67;;
23046;SDS011;11691;51.462;6.902;2023-05-02T14:46:16;6.63;;;2.15;;
23046;SDS011;11691;51.462;6.902;2023-05-02T14:48:42;12.68;;;2.70;;
23046;SDS011;11691;51.462;6.902;2023-05-02T14:51:08;5.85;;;2.40;;
23046;SDS011;11691;51.462;6.902;2023-05-02T14:53:34;5.97;;;2.60;;
23046;SDS011;11691;51.462;6.902;2023-05-02T14:56:01;8.45;;;3.03;;
23046;SDS011;11691;51.462;6.902;2023-05-02T14:58:27;6.57;;;2.40;;
23046;SDS011;11691;51.462;6.902;2023-05-02T15:00:53;6.28;;;2.80;;
23046;SDS011;11691;51.462;6.902;2023-05-02T15:03:19;4.95;;;2.60;;
23046;SDS011;11691;51.462;6.902;2023-05-02T15:05:45;7.47;;;2.22;;
23046;SDS011;11691;51.462;6.902;2023-05-02T15:08:11;8.88;;;3.33;;
23046;SDS011;11691;51.462;6.902;2023-05-02T15:10:37;8.27;;;2.30;;
23046;SDS011;11691;51.462;6.902;2023-05-02T15:13:03;9.15;;;2.72;;
23046;SDS011;11691;51.462;6.902;2023-05-02T15:15:30;4.75;;;2.47;;
23046;SDS011;11691;51.462;6.902;2023-05-02T15:17:56;6.80;;;2.85;;
23046;SDS011;11691;51.462;6.902;2023-05-02T15:20:22;7.72;;;2.97;;
23046;SDS011;11691;51.462;6.902;2023-05-02T15:22:48;9.45;;;3.13;;